sensor_id;sensor_type;location;lat;lon;timestamp;temperature;humidity
5868;DHT22;2960;49.142;7.768;2023-06-10T00:02:07;20.20;51.30
5868;DHT22;2960;49.142;7.768;2023-06-10T00:04:34;20.10;51.30
5868;DHT22;2960;49.142;7.768;2023-06-10T00:07:03;20.10;51.40
5868;DHT22;2960;49.142;7.768;2023-06-10T00:09:34;20.10;51.40
5868;DHT22;2960;49.142;7.768;2023-06-10T00:12:02;20.00;51.50
5868;DHT22;2960;49.142;7.768;2023-06-10T00:14:29;20.00;51.50
5868;DHT22;2960;49.142;7.768;2023-06-10T00:16:57;20.00;51.60
5868;DHT22;2960;49.142;7.768;2023-06-10T00:19:25;19.90;51.50
5868;DHT22;2960;49.142;7.768;2023-06-10T00:21:56;19.90;51.70
5868;DHT22;2960;49.142;7.768;2023-06-10T00:24:24;19.90;51.70
5868;DHT22;2960;49.142;7.768;2023-06-10T00:26:53;19.80;51.80
5868;DHT22;2960;49.142;7.768;2023-06-10T00:29:21;19.80;51.80
5868;DHT22;2960;49.142;7.768;2023-06-10T00:31:48;19.80;51.80
5868;DHT22;2960;49.142;7.768;2023-06-10T00:34:16;19.80;52.50
5868;DHT22;2960;49.142;7.768;2023-06-10T00:36:43;19.70;51.90
5868;DHT22;2960;49.142;7.768;2023-06-10T00:39:10;19.70;51.90
5868;DHT22;2960;49.142;7.768;2023-06-10T00:41:38;19.70;52.00
5868;DHT22;2960;49.142;7.768;2023-06-10T00:44:05;19.70;52.70
5868;DHT22;2960;49.142;7.768;2023-06-10T00:46:32;19.60;52.00
5868;DHT22;2960;49.142;7.768;2023-06-10T00:49:00;19.60;52.10
5868;DHT22;2960;49.142;7.768;2023-06-10T00:51:29;19.60;52.20
5868;DHT22;2960;49.142;7.768;2023-06-10T00:53:56;19.50;52.20
5868;DHT22;2960;49.142;7.768;2023-06-10T00:56:24;19.50;52.90
5868;DHT22;2960;49.142;7.768;2023-06-10T00:58:52;19.50;52.30
5868;DHT22;2960;49.142;7.768;2023-06-10T01:01:19;19.40;52.90
5868;DHT22;2960;49.142;7.768;2023-06-10T01:03:46;19.40;52.30
5868;DHT22;2960;49.142;7.768;2023-06-10T01:06:20;19.40;52.40
5868;DHT22;2960;49.142;7.768;2023-06-10T01:08:59;19.40;52.50
5868;DHT22;2960;49.142;7.768;2023-06-10T01:11:35;19.30;52.60
5868;DHT22;2960;49.142;7.768;2023-06-10T01:14:04;19.30;52.70
5868;DHT22;2960;49.142;7.768;2023-06-10T01:16:33;19.30;52.70
5868;DHT22;2960;49.142;7.768;2023-06-10T01:19:01;19.20;52.80
5868;DHT22;2960;49.142;7.768;2023-06-10T01:21:30;19.20;52.80
5868;DHT22;2960;49.142;7.768;2023-06-10T01:23:57;19.10;53.40
5868;DHT22;2960;49.142;7.768;2023-06-10T01:26:29;19.10;52.80
5868;DHT22;2960;49.142;7.768;2023-06-10T01:28:59;19.10;52.90
5868;DHT22;2960;49.142;7.768;2023-06-10T01:31:36;19.10;53.00
5868;DHT22;2960;49.142;7.768;2023-06-10T01:34:09;19.00;53.00
5868;DHT22;2960;49.142;7.768;2023-06-10T01:36:41;19.00;53.10
5868;DHT22;2960;49.142;7.768;2023-06-10T01:39:15;19.00;53.20
5868;DHT22;2960;49.142;7.768;2023-06-10T01:41:43;18.90;53.20
5868;DHT22;2960;49.142;7.768;2023-06-10T01:44:10;18.90;53.20
5868;DHT22;2960;49.142;7.768;2023-06-10T01:46:37;18.90;53.30
5868;DHT22;2960;49.142;7.768;2023-06-10T01:49:04;18.80;53.40
5868;DHT22;2960;49.142;7.768;2023-06-10T01:51:34;18.80;53.40
5868;DHT22;2960;49.142;7.768;2023-06-10T01:54:03;18.80;53.50
5868;DHT22;2960;49.142;7.768;2023-06-10T01:56:31;18.70;53.50
5868;DHT22;2960;49.142;7.768;2023-06-10T01:58:58;18.70;53.60
5868;DHT22;2960;49.142;7.768;2023-06-10T02:01:26;18.70;53.70
5868;DHT22;2960;49.142;7.768;2023-06-10T02:03:53;18.60;53.60
5868;DHT22;2960;49.142;7.768;2023-06-10T02:06:20;18.60;53.70
5868;DHT22;2960;49.142;7.768;2023-06-10T02:08:47;18.60;53.80
5868;DHT22;2960;49.142;7.768;2023-06-10T02:11:15;18.60;53.80
5868;DHT22;2960;49.142;7.768;2023-06-10T02:13:42;18.50;53.80
5868;DHT22;2960;49.142;7.768;2023-06-10T02:16:10;18.50;53.90
5868;DHT22;2960;49.142;7.768;2023-06-10T02:18:38;18.50;53.90
5868;DHT22;2960;49.142;7.768;2023-06-10T02:21:08;18.50;54.00
5868;DHT22;2960;49.142;7.768;2023-06-10T02:23:36;18.50;54.00
5868;DHT22;2960;49.142;7.768;2023-06-10T02:26:03;18.40;54.00
5868;DHT22;2960;49.142;7.768;2023-06-10T02:28:31;18.40;54.10
5868;DHT22;2960;49.142;7.768;2023-06-10T02:30:59;18.40;54.20
5868;DHT22;2960;49.142;7.768;2023-06-10T02:33:28;18.30;54.20
5868;DHT22;2960;49.142;7.768;2023-06-10T02:35:56;18.30;54.20
5868;DHT22;2960;49.142;7.768;2023-06-10T02:38:23;18.30;54.30
5868;DHT22;2960;49.142;7.768;2023-06-10T02:40:50;18.20;54.30
5868;DHT22;2960;49.142;7.768;2023-06-10T02:43:17;18.20;54.40
5868;DHT22;2960;49.142;7.768;2023-06-10T02:45:46;18.20;54.50
5868;DHT22;2960;49.142;7.768;2023-06-10T02:48:13;18.20;54.50
5868;DHT22;2960;49.142;7.768;2023-06-10T02:50:40;18.10;55.10
5868;DHT22;2960;49.142;7.768;2023-06-10T02:53:07;18.10;54.60
5868;DHT22;2960;49.142;7.768;2023-06-10T02:55:34;18.10;54.70
5868;DHT22;2960;49.142;7.768;2023-06-10T02:58:01;18.00;54.70
5868;DHT22;2960;49.142;7.768;2023-06-10T03:00:29;18.00;54.80
5868;DHT22;2960;49.142;7.768;2023-06-10T03:02:58;18.00;55.50
5868;DHT22;2960;49.142;7.768;2023-06-10T03:05:28;18.00;55.00
5868;DHT22;2960;49.142;7.768;2023-06-10T03:07:55;17.90;54.90
5868;DHT22;2960;49.142;7.768;2023-06-10T03:10:22;17.90;55.00
5868;DHT22;2960;49.142;7.768;2023-06-10T03:12:49;17.90;55.00
5868;DHT22;2960;49.142;7.768;2023-06-10T03:15:16;17.80;55.00
5868;DHT22;2960;49.142;7.768;2023-06-10T03:17:46;17.80;55.10
5868;DHT22;2960;49.142;7.768;2023-06-10T03:20:14;17.80;55.10
5868;DHT22;2960;49.142;7.768;2023-06-10T03:22:42;17.80;55.20
5868;DHT22;2960;49.142;7.768;2023-06-10T03:25:09;17.70;55.20
5868;DHT22;2960;49.142;7.768;2023-06-10T03:27:39;17.70;55.30
5868;DHT22;2960;49.142;7.768;2023-06-10T03:30:07;17.70;55.30
5868;DHT22;2960;49.142;7.768;2023-06-10T03:32:35;17.60;55.40
5868;DHT22;2960;49.142;7.768;2023-06-10T03:35:03;17.60;55.40
5868;DHT22;2960;49.142;7.768;2023-06-10T03:37:33;17.60;55.40
5868;DHT22;2960;49.142;7.768;2023-06-10T03:40:00;17.60;55.50
5868;DHT22;2960;49.142;7.768;2023-06-10T03:42:29;17.60;55.60
5868;DHT22;2960;49.142;7.768;2023-06-10T03:44:56;17.60;55.60
5868;DHT22;2960;49.142;7.768;2023-06-10T03:47:23;17.50;55.60
5868;DHT22;2960;49.142;7.768;2023-06-10T03:49:50;17.50;55.60
5868;DHT22;2960;49.142;7.768;2023-06-10T03:52:18;17.50;55.70
5868;DHT22;2960;49.142;7.768;2023-06-10T03:54:46;17.50;55.80
5868;DHT22;2960;49.142;7.768;2023-06-10T03:57:13;17.50;55.90
5868;DHT22;2960;49.142;7.768;2023-06-10T03:59:40;17.40;55.80
5868;DHT22;2960;49.142;7.768;2023-06-10T04:02:08;17.40;55.80
5868;DHT22;2960;49.142;7.768;2023-06-10T04:04:35;17.40;55.90
5868;DHT22;2960;49.142;7.768;2023-06-10T04:07:03;17.40;55.90
5868;DHT22;2960;49.142;7.768;2023-06-10T04:09:30;17.40;56.00
5868;DHT22;2960;49.142;7.768;2023-06-10T04:11:59;17.40;56.10
5868;DHT22;2960;49.142;7.768;2023-06-10T04:14:27;17.40;56.10
5868;DHT22;2960;49.142;7.768;2023-06-10T04:16:54;17.40;56.10
5868;DHT22;2960;49.142;7.768;2023-06-10T04:19:21;17.40;56.20
5868;DHT22;2960;49.142;7.768;2023-06-10T04:21:48;17.40;56.20
5868;DHT22;2960;49.142;7.768;2023-06-10T04:24:15;17.40;56.30
5868;DHT22;2960;49.142;7.768;2023-06-10T04:26:42;17.40;56.30
5868;DHT22;2960;49.142;7.768;2023-06-10T04:29:13;17.40;56.30
5868;DHT22;2960;49.142;7.768;2023-06-10T04:31:40;17.40;56.30
5868;DHT22;2960;49.142;7.768;2023-06-10T04:34:07;17.50;57.00
5868;DHT22;2960;49.142;7.768;2023-06-10T04:36:38;17.50;56.50
5868;DHT22;2960;49.142;7.768;2023-06-10T04:39:05;17.50;56.50
5868;DHT22;2960;49.142;7.768;2023-06-10T04:41:32;17.50;56.60
5868;DHT22;2960;49.142;7.768;2023-06-10T04:43:59;17.60;56.70
5868;DHT22;2960;49.142;7.768;2023-06-10T04:46:27;17.60;56.70
5868;DHT22;2960;49.142;7.768;2023-06-10T04:48:57;17.60;56.70
5868;DHT22;2960;49.142;7.768;2023-06-10T04:51:24;17.70;56.80
5868;DHT22;2960;49.142;7.768;2023-06-10T04:53:54;17.80;56.80
5868;DHT22;2960;49.142;7.768;2023-06-10T04:56:21;17.80;56.80
5868;DHT22;2960;49.142;7.768;2023-06-10T04:58:48;17.80;56.80
5868;DHT22;2960;49.142;7.768;2023-06-10T05:01:15;17.90;56.90
5868;DHT22;2960;49.142;7.768;2023-06-10T05:03:44;17.90;56.80
5868;DHT22;2960;49.142;7.768;2023-06-10T05:06:11;18.00;56.90
5868;DHT22;2960;49.142;7.768;2023-06-10T05:08:38;18.00;56.90
5868;DHT22;2960;49.142;7.768;2023-06-10T05:11:05;18.10;56.90
5868;DHT22;2960;49.142;7.768;2023-06-10T05:13:32;18.20;56.90
5868;DHT22;2960;49.142;7.768;2023-06-10T05:16:00;18.20;56.80
5868;DHT22;2960;49.142;7.768;2023-06-10T05:18:27;18.30;56.90
5868;DHT22;2960;49.142;7.768;2023-06-10T05:20:56;18.40;57.40
5868;DHT22;2960;49.142;7.768;2023-06-10T05:23:23;18.50;56.80
5868;DHT22;2960;49.142;7.768;2023-06-10T05:25:50;18.60;56.80
5868;DHT22;2960;49.142;7.768;2023-06-10T05:28:17;18.70;56.90
5868;DHT22;2960;49.142;7.768;2023-06-10T05:30:45;18.80;56.90
5868;DHT22;2960;49.142;7.768;2023-06-10T05:33:12;18.90;56.90
5868;DHT22;2960;49.142;7.768;2023-06-10T05:35:39;18.90;56.80
5868;DHT22;2960;49.142;7.768;2023-06-10T05:38:08;19.00;56.80
5868;DHT22;2960;49.142;7.768;2023-06-10T05:40:35;19.10;56.90
5868;DHT22;2960;49.142;7.768;2023-06-10T05:43:02;19.20;57.00
5868;DHT22;2960;49.142;7.768;2023-06-10T05:45:29;19.30;57.00
5868;DHT22;2960;49.142;7.768;2023-06-10T05:47:56;19.40;57.00
5868;DHT22;2960;49.142;7.768;2023-06-10T05:50:26;19.50;57.10
5868;DHT22;2960;49.142;7.768;2023-06-10T05:52:53;19.60;57.00
5868;DHT22;2960;49.142;7.768;2023-06-10T05:55:21;19.70;57.10
5868;DHT22;2960;49.142;7.768;2023-06-10T05:57:58;19.80;57.20
5868;DHT22;2960;49.142;7.768;2023-06-10T06:00:26;20.00;57.30
5868;DHT22;2960;49.142;7.768;2023-06-10T06:02:54;20.10;57.40
5868;DHT22;2960;49.142;7.768;2023-06-10T06:05:22;20.20;57.50
5868;DHT22;2960;49.142;7.768;2023-06-10T06:07:49;20.30;57.50
5868;DHT22;2960;49.142;7.768;2023-06-10T06:10:17;20.40;57.60
5868;DHT22;2960;49.142;7.768;2023-06-10T06:12:46;20.50;57.70
5868;DHT22;2960;49.142;7.768;2023-06-10T06:15:13;20.70;58.30
5868;DHT22;2960;49.142;7.768;2023-06-10T06:17:40;20.80;57.70
5868;DHT22;2960;49.142;7.768;2023-06-10T06:20:08;20.90;57.50
5868;DHT22;2960;49.142;7.768;2023-06-10T06:22:35;21.00;57.40
5868;DHT22;2960;49.142;7.768;2023-06-10T06:25:03;21.20;57.10
5868;DHT22;2960;49.142;7.768;2023-06-10T06:27:31;21.30;56.80
5868;DHT22;2960;49.142;7.768;2023-06-10T06:29:59;21.40;56.70
5868;DHT22;2960;49.142;7.768;2023-06-10T06:32:26;21.50;56.40
5868;DHT22;2960;49.142;7.768;2023-06-10T06:34:53;21.70;56.30
5868;DHT22;2960;49.142;7.768;2023-06-10T06:37:22;21.80;56.10
5868;DHT22;2960;49.142;7.768;2023-06-10T06:39:50;21.90;55.90
5868;DHT22;2960;49.142;7.768;2023-06-10T06:42:17;22.10;55.80
5868;DHT22;2960;49.142;7.768;2023-06-10T06:44:44;22.20;55.50
5868;DHT22;2960;49.142;7.768;2023-06-10T06:47:14;22.30;55.30
5868;DHT22;2960;49.142;7.768;2023-06-10T06:49:43;22.40;55.10
5868;DHT22;2960;49.142;7.768;2023-06-10T06:52:10;22.50;55.00
5868;DHT22;2960;49.142;7.768;2023-06-10T06:54:40;22.70;54.90
5868;DHT22;2960;49.142;7.768;2023-06-10T06:57:07;22.80;54.80
5868;DHT22;2960;49.142;7.768;2023-06-10T06:59:34;22.90;54.60
5868;DHT22;2960;49.142;7.768;2023-06-10T07:02:02;23.00;54.40
5868;DHT22;2960;49.142;7.768;2023-06-10T07:04:30;23.10;54.20
5868;DHT22;2960;49.142;7.768;2023-06-10T07:06:57;23.20;54.00
5868;DHT22;2960;49.142;7.768;2023-06-10T07:09:25;23.30;53.90
5868;DHT22;2960;49.142;7.768;2023-06-10T07:11:52;23.40;53.70
5868;DHT22;2960;49.142;7.768;2023-06-10T07:14:19;23.50;53.60
5868;DHT22;2960;49.142;7.768;2023-06-10T07:16:48;23.60;53.40
5868;DHT22;2960;49.142;7.768;2023-06-10T07:19:15;23.70;53.70
5868;DHT22;2960;49.142;7.768;2023-06-10T07:21:44;23.70;53.00
5868;DHT22;2960;49.142;7.768;2023-06-10T07:24:11;23.80;52.90
5868;DHT22;2960;49.142;7.768;2023-06-10T07:26:38;23.90;52.80
5868;DHT22;2960;49.142;7.768;2023-06-10T07:29:05;24.00;52.80
5868;DHT22;2960;49.142;7.768;2023-06-10T07:31:33;24.10;52.70
5868;DHT22;2960;49.142;7.768;2023-06-10T07:34:00;24.20;52.50
5868;DHT22;2960;49.142;7.768;2023-06-10T07:36:27;24.30;52.40
5868;DHT22;2960;49.142;7.768;2023-06-10T07:38:56;24.40;52.90
5868;DHT22;2960;49.142;7.768;2023-06-10T07:41:23;24.50;52.20
5868;DHT22;2960;49.142;7.768;2023-06-10T07:43:52;24.60;52.10
5868;DHT22;2960;49.142;7.768;2023-06-10T07:46:20;24.70;52.00
5868;DHT22;2960;49.142;7.768;2023-06-10T07:48:47;24.80;51.80
5868;DHT22;2960;49.142;7.768;2023-06-10T07:51:15;25.00;51.80
5868;DHT22;2960;49.142;7.768;2023-06-10T07:53:43;25.00;51.60
5868;DHT22;2960;49.142;7.768;2023-06-10T07:56:11;25.10;51.50
5868;DHT22;2960;49.142;7.768;2023-06-10T07:58:38;25.20;51.40
5868;DHT22;2960;49.142;7.768;2023-06-10T08:01:05;25.30;51.20
5868;DHT22;2960;49.142;7.768;2023-06-10T08:03:33;25.40;51.10
5868;DHT22;2960;49.142;7.768;2023-06-10T08:06:00;25.40;50.90
5868;DHT22;2960;49.142;7.768;2023-06-10T08:08:27;25.40;50.80
5868;DHT22;2960;49.142;7.768;2023-06-10T08:10:54;25.50;50.60
5868;DHT22;2960;49.142;7.768;2023-06-10T08:13:23;25.50;51.10
5868;DHT22;2960;49.142;7.768;2023-06-10T08:15:50;25.60;50.30
5868;DHT22;2960;49.142;7.768;2023-06-10T08:18:19;25.60;50.40
5868;DHT22;2960;49.142;7.768;2023-06-10T08:20:46;25.60;50.20
5868;DHT22;2960;49.142;7.768;2023-06-10T08:23:14;25.70;50.30
5868;DHT22;2960;49.142;7.768;2023-06-10T08:25:41;25.80;50.30
5868;DHT22;2960;49.142;7.768;2023-06-10T08:28:08;25.80;50.10
5868;DHT22;2960;49.142;7.768;2023-06-10T08:30:37;25.90;50.10
5868;DHT22;2960;49.142;7.768;2023-06-10T08:33:04;25.90;49.90
5868;DHT22;2960;49.142;7.768;2023-06-10T08:35:31;26.00;49.80
5868;DHT22;2960;49.142;7.768;2023-06-10T08:37:58;26.10;49.80
5868;DHT22;2960;49.142;7.768;2023-06-10T08:40:25;26.10;49.60
5868;DHT22;2960;49.142;7.768;2023-06-10T08:42:59;26.20;49.40
5868;DHT22;2960;49.142;7.768;2023-06-10T08:45:30;26.30;49.40
5868;DHT22;2960;49.142;7.768;2023-06-10T08:47:59;26.30;49.60
5868;DHT22;2960;49.142;7.768;2023-06-10T08:50:28;26.40;49.00
5868;DHT22;2960;49.142;7.768;2023-06-10T08:52:58;26.40;49.00
5868;DHT22;2960;49.142;7.768;2023-06-10T08:55:29;26.50;48.90
5868;DHT22;2960;49.142;7.768;2023-06-10T08:57:59;26.60;48.70
5868;DHT22;2960;49.142;7.768;2023-06-10T09:00:27;26.70;48.40
5868;DHT22;2960;49.142;7.768;2023-06-10T09:02:55;26.70;48.20
5868;DHT22;2960;49.142;7.768;2023-06-10T09:05:24;26.80;48.20
5868;DHT22;2960;49.142;7.768;2023-06-10T09:07:52;26.90;48.00
5868;DHT22;2960;49.142;7.768;2023-06-10T09:10:19;26.90;47.70
5868;DHT22;2960;49.142;7.768;2023-06-10T09:12:46;27.00;47.60
5868;DHT22;2960;49.142;7.768;2023-06-10T09:15:14;27.10;47.60
5868;DHT22;2960;49.142;7.768;2023-06-10T09:17:43;27.20;47.50
5868;DHT22;2960;49.142;7.768;2023-06-10T09:20:11;27.20;47.30
5868;DHT22;2960;49.142;7.768;2023-06-10T09:22:41;27.30;47.20
5868;DHT22;2960;49.142;7.768;2023-06-10T09:25:09;27.40;47.10
5868;DHT22;2960;49.142;7.768;2023-06-10T09:27:45;27.40;46.80
5868;DHT22;2960;49.142;7.768;2023-06-10T09:30:26;27.50;46.80
5868;DHT22;2960;49.142;7.768;2023-06-10T09:32:55;27.50;46.70
5868;DHT22;2960;49.142;7.768;2023-06-10T09:35:26;27.60;46.70
5868;DHT22;2960;49.142;7.768;2023-06-10T09:37:58;27.60;46.60
5868;DHT22;2960;49.142;7.768;2023-06-10T09:40:25;27.70;46.50
5868;DHT22;2960;49.142;7.768;2023-06-10T09:42:54;27.80;46.40
5868;DHT22;2960;49.142;7.768;2023-06-10T09:45:22;27.90;46.30
5868;DHT22;2960;49.142;7.768;2023-06-10T09:47:52;28.00;46.20
5868;DHT22;2960;49.142;7.768;2023-06-10T09:50:20;28.10;46.20
5868;DHT22;2960;49.142;7.768;2023-06-10T09:52:47;28.10;46.70
5868;DHT22;2960;49.142;7.768;2023-06-10T09:55:16;28.20;45.80
5868;DHT22;2960;49.142;7.768;2023-06-10T09:57:44;28.30;45.70
5868;DHT22;2960;49.142;7.768;2023-06-10T10:00:14;28.30;45.80
5868;DHT22;2960;49.142;7.768;2023-06-10T10:02:46;28.40;45.70
5868;DHT22;2960;49.142;7.768;2023-06-10T10:05:15;28.50;45.50
5868;DHT22;2960;49.142;7.768;2023-06-10T10:07:43;28.60;45.40
5868;DHT22;2960;49.142;7.768;2023-06-10T10:10:12;28.70;45.40
5868;DHT22;2960;49.142;7.768;2023-06-10T10:12:41;28.70;45.20
5868;DHT22;2960;49.142;7.768;2023-06-10T10:15:10;28.80;45.10
5868;DHT22;2960;49.142;7.768;2023-06-10T10:17:40;28.90;44.80
5868;DHT22;2960;49.142;7.768;2023-06-10T10:20:14;28.90;44.70
5868;DHT22;2960;49.142;7.768;2023-06-10T10:22:47;29.00;44.60
5868;DHT22;2960;49.142;7.768;2023-06-10T10:25:23;29.00;44.50
5868;DHT22;2960;49.142;7.768;2023-06-10T10:27:59;29.10;44.50
5868;DHT22;2960;49.142;7.768;2023-06-10T10:30:34;29.20;44.30
5868;DHT22;2960;49.142;7.768;2023-06-10T10:33:06;29.30;44.00
5868;DHT22;2960;49.142;7.768;2023-06-10T10:35:36;29.30;43.90
5868;DHT22;2960;49.142;7.768;2023-06-10T10:38:05;29.30;43.90
5868;DHT22;2960;49.142;7.768;2023-06-10T10:40:36;29.30;43.80
5868;DHT22;2960;49.142;7.768;2023-06-10T10:43:05;29.30;43.70
5868;DHT22;2960;49.142;7.768;2023-06-10T10:45:33;29.30;43.70
5868;DHT22;2960;49.142;7.768;2023-06-10T10:48:07;29.40;43.70
5868;DHT22;2960;49.142;7.768;2023-06-10T10:50:37;29.50;44.30
5868;DHT22;2960;49.142;7.768;2023-06-10T10:53:08;29.60;43.60
5868;DHT22;2960;49.142;7.768;2023-06-10T10:55:35;29.60;43.50
5868;DHT22;2960;49.142;7.768;2023-06-10T10:58:05;29.70;43.40
5868;DHT22;2960;49.142;7.768;2023-06-10T11:00:34;29.80;43.30
5868;DHT22;2960;49.142;7.768;2023-06-10T11:03:06;29.80;43.30
5868;DHT22;2960;49.142;7.768;2023-06-10T11:05:40;29.80;43.10
5868;DHT22;2960;49.142;7.768;2023-06-10T11:08:10;29.80;43.30
5868;DHT22;2960;49.142;7.768;2023-06-10T11:10:39;29.80;42.90
5868;DHT22;2960;49.142;7.768;2023-06-10T11:13:09;29.90;42.80
5868;DHT22;2960;49.142;7.768;2023-06-10T11:15:43;29.90;42.60
5868;DHT22;2960;49.142;7.768;2023-06-10T11:18:22;30.00;42.60
5868;DHT22;2960;49.142;7.768;2023-06-10T11:20:58;30.00;42.50
5868;DHT22;2960;49.142;7.768;2023-06-10T11:23:34;30.00;43.00
5868;DHT22;2960;49.142;7.768;2023-06-10T11:26:17;30.00;42.40
5868;DHT22;2960;49.142;7.768;2023-06-10T11:29:05;30.00;42.10
5868;DHT22;2960;49.142;7.768;2023-06-10T11:31:43;30.00;42.10
5868;DHT22;2960;49.142;7.768;2023-06-10T11:34:11;29.90;41.90
5868;DHT22;2960;49.142;7.768;2023-06-10T11:36:40;29.90;42.00
5868;DHT22;2960;49.142;7.768;2023-06-10T11:39:11;29.80;42.60
5868;DHT22;2960;49.142;7.768;2023-06-10T11:41:39;29.80;41.90
5868;DHT22;2960;49.142;7.768;2023-06-10T11:44:11;29.80;41.80
5868;DHT22;2960;49.142;7.768;2023-06-10T11:46:40;29.90;41.70
5868;DHT22;2960;49.142;7.768;2023-06-10T11:49:08;29.90;41.60
5868;DHT22;2960;49.142;7.768;2023-06-10T11:51:37;30.00;41.70
5868;DHT22;2960;49.142;7.768;2023-06-10T11:54:08;30.00;41.50
5868;DHT22;2960;49.142;7.768;2023-06-10T11:56:36;30.10;41.40
5868;DHT22;2960;49.142;7.768;2023-06-10T11:59:05;30.10;41.30
5868;DHT22;2960;49.142;7.768;2023-06-10T12:01:36;30.20;41.40
5868;DHT22;2960;49.142;7.768;2023-06-10T12:04:05;30.20;41.20
5868;DHT22;2960;49.142;7.768;2023-06-10T12:06:43;30.20;41.10
5868;DHT22;2960;49.142;7.768;2023-06-10T12:09:19;30.20;41.00
5868;DHT22;2960;49.142;7.768;2023-06-10T12:11:49;30.20;41.00
5868;DHT22;2960;49.142;7.768;2023-06-10T12:14:51;30.20;40.90
5868;DHT22;2960;49.142;7.768;2023-06-10T12:17:22;30.20;41.00
5868;DHT22;2960;49.142;7.768;2023-06-10T12:19:51;30.20;40.80
5868;DHT22;2960;49.142;7.768;2023-06-10T12:22:18;30.20;40.60
5868;DHT22;2960;49.142;7.768;2023-06-10T12:24:57;30.20;40.60
5868;DHT22;2960;49.142;7.768;2023-06-10T12:27:26;30.30;40.70
5868;DHT22;2960;49.142;7.768;2023-06-10T12:29:55;30.30;40.60
5868;DHT22;2960;49.142;7.768;2023-06-10T12:32:37;30.40;40.60
5868;DHT22;2960;49.142;7.768;2023-06-10T12:35:06;30.40;40.40
5868;DHT22;2960;49.142;7.768;2023-06-10T12:37:34;30.50;40.30
5868;DHT22;2960;49.142;7.768;2023-06-10T12:40:03;30.50;40.10
5868;DHT22;2960;49.142;7.768;2023-06-10T12:42:33;30.50;40.10
5868;DHT22;2960;49.142;7.768;2023-06-10T12:45:03;30.50;39.90
5868;DHT22;2960;49.142;7.768;2023-06-10T12:47:33;30.50;39.90
5868;DHT22;2960;49.142;7.768;2023-06-10T12:50:05;30.50;39.70
5868;DHT22;2960;49.142;7.768;2023-06-10T12:52:33;30.50;39.60
5868;DHT22;2960;49.142;7.768;2023-06-10T12:55:04;30.50;39.60
5868;DHT22;2960;49.142;7.768;2023-06-10T12:57:32;30.50;39.30
5868;DHT22;2960;49.142;7.768;2023-06-10T12:59:59;30.50;39.50
5868;DHT22;2960;49.142;7.768;2023-06-10T13:02:29;30.50;39.60
5868;DHT22;2960;49.142;7.768;2023-06-10T13:04:58;30.50;40.20
5868;DHT22;2960;49.142;7.768;2023-06-10T13:07:25;30.60;39.70
5868;DHT22;2960;49.142;7.768;2023-06-10T13:09:52;30.60;39.50
5868;DHT22;2960;49.142;7.768;2023-06-10T13:12:19;30.60;39.50
5868;DHT22;2960;49.142;7.768;2023-06-10T13:14:46;30.70;39.50
5868;DHT22;2960;49.142;7.768;2023-06-10T13:17:14;30.70;39.40
5868;DHT22;2960;49.142;7.768;2023-06-10T13:19:41;30.70;39.40
5868;DHT22;2960;49.142;7.768;2023-06-10T13:22:09;30.70;39.30
5868;DHT22;2960;49.142;7.768;2023-06-10T13:24:39;30.70;39.20
5868;DHT22;2960;49.142;7.768;2023-06-10T13:27:09;30.80;39.20
5868;DHT22;2960;49.142;7.768;2023-06-10T13:29:36;30.80;39.00
5868;DHT22;2960;49.142;7.768;2023-06-10T13:32:04;30.80;38.90
5868;DHT22;2960;49.142;7.768;2023-06-10T13:34:31;30.80;38.90
5868;DHT22;2960;49.142;7.768;2023-06-10T13:36:58;30.80;38.90
5868;DHT22;2960;49.142;7.768;2023-06-10T13:39:27;30.80;39.00
5868;DHT22;2960;49.142;7.768;2023-06-10T13:41:54;30.80;39.00
5868;DHT22;2960;49.142;7.768;2023-06-10T13:44:21;30.80;39.00
5868;DHT22;2960;49.142;7.768;2023-06-10T13:46:48;30.80;39.00
5868;DHT22;2960;49.142;7.768;2023-06-10T13:49:15;30.80;39.00
5868;DHT22;2960;49.142;7.768;2023-06-10T13:51:43;30.80;39.00
5868;DHT22;2960;49.142;7.768;2023-06-10T13:54:10;30.80;39.00
5868;DHT22;2960;49.142;7.768;2023-06-10T13:56:41;30.80;38.80
5868;DHT22;2960;49.142;7.768;2023-06-10T13:59:08;30.80;38.70
5868;DHT22;2960;49.142;7.768;2023-06-10T14:01:35;30.80;38.60
5868;DHT22;2960;49.142;7.768;2023-06-10T14:04:03;30.80;38.60
5868;DHT22;2960;49.142;7.768;2023-06-10T14:06:30;30.80;38.50
5868;DHT22;2960;49.142;7.768;2023-06-10T14:08:58;30.80;38.40
5868;DHT22;2960;49.142;7.768;2023-06-10T14:11:29;30.80;38.30
5868;DHT22;2960;49.142;7.768;2023-06-10T14:13:58;30.80;38.10
5868;DHT22;2960;49.142;7.768;2023-06-10T14:16:26;30.80;38.00
5868;DHT22;2960;49.142;7.768;2023-06-10T14:18:53;30.70;37.90
5868;DHT22;2960;49.142;7.768;2023-06-10T14:21:21;30.70;37.90
5868;DHT22;2960;49.142;7.768;2023-06-10T14:23:48;30.70;37.80
5868;DHT22;2960;49.142;7.768;2023-06-10T14:26:17;30.70;37.80
5868;DHT22;2960;49.142;7.768;2023-06-10T14:28:44;30.70;37.80
5868;DHT22;2960;49.142;7.768;2023-06-10T14:31:12;30.70;37.80
5868;DHT22;2960;49.142;7.768;2023-06-10T14:33:39;30.60;37.70
5868;DHT22;2960;49.142;7.768;2023-06-10T14:36:08;30.70;37.60
5868;DHT22;2960;49.142;7.768;2023-06-10T14:38:36;30.60;37.60
5868;DHT22;2960;49.142;7.768;2023-06-10T14:41:03;30.60;37.60
5868;DHT22;2960;49.142;7.768;2023-06-10T14:43:30;30.50;37.50
5868;DHT22;2960;49.142;7.768;2023-06-10T14:45:57;30.50;37.60
5868;DHT22;2960;49.142;7.768;2023-06-10T14:48:26;30.50;37.50
5868;DHT22;2960;49.142;7.768;2023-06-10T14:50:53;30.50;37.40
5868;DHT22;2960;49.142;7.768;2023-06-10T14:53:20;30.50;37.40
5868;DHT22;2960;49.142;7.768;2023-06-10T14:55:48;30.40;37.40
5868;DHT22;2960;49.142;7.768;2023-06-10T14:58:15;30.40;37.40
5868;DHT22;2960;49.142;7.768;2023-06-10T15:00:42;30.40;37.30
5868;DHT22;2960;49.142;7.768;2023-06-10T15:03:09;30.30;37.10
5868;DHT22;2960;49.142;7.768;2023-06-10T15:05:38;30.30;37.10
5868;DHT22;2960;49.142;7.768;2023-06-10T15:08:05;30.30;37.20
5868;DHT22;2960;49.142;7.768;2023-06-10T15:10:33;30.30;37.10
5868;DHT22;2960;49.142;7.768;2023-06-10T15:13:00;30.20;37.00
5868;DHT22;2960;49.142;7.768;2023-06-10T15:15:27;30.20;37.00
5868;DHT22;2960;49.142;7.768;2023-06-10T15:17:54;30.10;36.90
5868;DHT22;2960;49.142;7.768;2023-06-10T15:20:22;30.20;37.50
5868;DHT22;2960;49.142;7.768;2023-06-10T15:22:50;30.10;36.80
5868;DHT22;2960;49.142;7.768;2023-06-10T15:25:19;30.10;37.40
5868;DHT22;2960;49.142;7.768;2023-06-10T15:27:46;30.10;36.80
5868;DHT22;2960;49.142;7.768;2023-06-10T15:30:13;30.10;36.80
5868;DHT22;2960;49.142;7.768;2023-06-10T15:32:41;30.00;36.60
5868;DHT22;2960;49.142;7.768;2023-06-10T15:35:08;30.10;36.60
5868;DHT22;2960;49.142;7.768;2023-06-10T15:37:36;30.00;36.50
5868;DHT22;2960;49.142;7.768;2023-06-10T15:40:05;30.00;36.50
5868;DHT22;2960;49.142;7.768;2023-06-10T15:42:33;30.00;36.40
5868;DHT22;2960;49.142;7.768;2023-06-10T15:45:00;30.00;36.30
5868;DHT22;2960;49.142;7.768;2023-06-10T15:47:27;30.00;36.20
5868;DHT22;2960;49.142;7.768;2023-06-10T15:49:55;29.90;36.10
5868;DHT22;2960;49.142;7.768;2023-06-10T15:52:22;30.00;36.00
5868;DHT22;2960;49.142;7.768;2023-06-10T15:54:49;29.90;35.90
5868;DHT22;2960;49.142;7.768;2023-06-10T15:57:17;29.90;36.00
5868;DHT22;2960;49.142;7.768;2023-06-10T15:59:45;29.90;36.00
5868;DHT22;2960;49.142;7.768;2023-06-10T16:02:12;29.80;36.00
5868;DHT22;2960;49.142;7.768;2023-06-10T16:04:39;29.90;36.10
5868;DHT22;2960;49.142;7.768;2023-06-10T16:07:06;29.80;36.00
5868;DHT22;2960;49.142;7.768;2023-06-10T16:09:33;29.80;36.00
5868;DHT22;2960;49.142;7.768;2023-06-10T16:12:00;29.80;36.00